Time,TemperatureF,DewpointF,PressureIn,WindDirection,WindDirectionDegrees,WindSpeedMPH,WindSpeedGustMPH,Humidity,HourlyPrecipIn,Conditions,Clouds,dailyrainin,SoftwareType,DateUTC
2013-07-13 00:00:00,70.8,70.8,29.88,South,181,0.0,0.0,100,0.00,,---,0.00,VWS V14.01,2013-07-13 04:00:00,
2013-07-13 00:10:00,70.8,70.8,29.88,South,181,0.0,0.0,100,0.00,,---,0.00,VWS V14.01,2013-07-13 04:10:00,
2013-07-13 00:20:00,70.8,70.8,29.88,South,181,0.0,0.0,100,0.00,,---,0.00,VWS V14.01,2013-07-13 04:20:00,
2013-07-13 00:30:00,70.6,70.6,29.88,South,181,0.0,0.0,100,0.00,,---,0.00,VWS V14.01,2013-07-13 04:30:00,
2013-07-13 00:40:00,70.6,70.6,29.88,South,181,0.0,0.0,100,0.00,,---,0.00,VWS V14.01,2013-07-13 04:40:00,
2013-07-13 00:50:00,70.6,70.6,29.88,South,181,0.0,0.0,100,0.00,,---,0.00,VWS V14.01,2013-07-13 04:50:00,
2013-07-13 01:00:00,70.4,70.4,29.88,South,181,0.0,0.0,100,0.00,,---,0.00,VWS V14.01,2013-07-13 05:00:00,
2013-07-13 01:10:00,70.4,70.4,29.88,South,181,0.0,0.0,100,0.00,,---,0.00,VWS V14.01,2013-07-13 05:10:00,
2013-07-13 01:20:00,70.4,70.4,29.87,South,184,0.0,0.0,100,0.00,,---,0.00,VWS V14.01,2013-07-13 05:20:00,
2013-07-13 01:30:00,70.3,70.3,29.87,South,184,0.0,0.0,100,0.00,,---,0.00,VWS V14.01,2013-07-13 05:30:00,
2013-07-13 01:40:00,70.3,70.3,29.87,South,184,0.0,0.0,100,0.00,,---,0.00,VWS V14.01,2013-07-13 05:40:00,
2013-07-13 01:50:00,70.1,70.1,29.87,South,184,0.0,0.0,100,0.00,,---,0.00,VWS V14.01,2013-07-13 05:50:00,
2013-07-13 02:00:00,70.1,70.1,29.87,South,184,0.0,0.0,100,0.00,,---,0.00,VWS V14.01,2013-07-13 06:00:00,
2013-07-13 02:10:00,70.1,70.1,29.87,South,184,0.0,0.0,100,0.00,,---,0.00,VWS V14.01,2013-07-13 06:10:00,
2013-07-13 02:20:00,70.1,70.1,29.87,South,184,0.0,0.0,100,0.00,,---,0.00,VWS V14.01,2013-07-13 06:20:00,
2013-07-13 02:30:00,70.1,70.1,29.87,South,184,0.0,0.0,100,0.00,,---,0.00,VWS V14.01,2013-07-13 06:30:00,
2013-07-13 02:40:00,70.1,70.1,29.87,South,184,0.0,0.0,100,0.00,,---,0.00,VWS V14.01,2013-07-13 06:40:00,
2013-07-13 02:50:00,70.1,70.1,29.87,South,184,0.0,0.0,100,0.00,,---,0.00,VWS V14.01,2013-07-13 06:50:00,
2013-07-13 03:00:00,70.1,70.1,29.87,South,184,0.0,0.0,100,0.00,,---,0.00,VWS V14.01,2013-07-13 07:00:00,
2013-07-13 03:10:00,70.3,70.3,29.87,South,184,0.0,0.0,100,0.00,,---,0.00,VWS V14.01,2013-07-13 07:10:00,
2013-07-13 03:20:00,70.3,70.3,29.88,South,184,0.0,0.0,100,0.00,,---,0.00,VWS V14.01,2013-07-13 07:20:00,
2013-07-13 03:30:00,70.3,70.3,29.88,South,184,0.0,0.0,100,0.00,,---,0.00,VWS V14.01,2013-07-13 07:30:00,
2013-07-13 03:40:00,70.3,70.3,29.88,South,184,0.0,0.0,100,0.00,,---,0.00,VWS V14.01,2013-07-13 07:40:00,
2013-07-13 03:50:00,70.4,70.4,29.88,South,184,0.0,0.0,100,0.00,,---,0.00,VWS V14.01,2013-07-13 07:50:00,
2013-07-13 04:00:00,70.4,70.4,29.88,South,184,0.0,0.0,100,0.00,,---,0.00,VWS V14.01,2013-07-13 08:00:00,
2013-07-13 04:10:00,70.4,70.4,29.88,South,184,0.0,0.0,100,0.00,,---,0.00,VWS V14.01,2013-07-13 08:10:00,
2013-07-13 04:20:00,70.6,70.6,29.88,South,184,0.0,0.0,100,0.00,,---,0.00,VWS V14.01,2013-07-13 08:20:00,
2013-07-13 04:30:00,70.6,70.6,29.88,South,184,0.0,0.0,100,0.00,,---,0.00,VWS V14.01,2013-07-13 08:30:00,
2013-07-13 04:40:00,70.6,70.6,29.88,South,184,0.0,0.0,100,0.00,,---,0.00,VWS V14.01,2013-07-13 08:40:00,
2013-07-13 04:50:00,70.6,70.6,29.89,South,184,0.0,0.0,100,0.00,,---,0.00,VWS V14.01,2013-07-13 08:50:00,
2013-07-13 05:00:00,70.6,70.6,29.89,South,184,0.0,0.0,100,0.00,,---,0.00,VWS V14.01,2013-07-13 09:00:00,
2013-07-13 05:10:00,70.8,70.8,29.89,South,184,0.0,0.0,100,0.00,,---,0.00,VWS V14.01,2013-07-13 09:10:00,
2013-07-13 05:20:00,70.8,70.8,29.89,South,184,0.0,0.0,100,0.00,,---,0.00,VWS V14.01,2013-07-13 09:20:00,
2013-07-13 05:30:00,70.8,70.8,29.89,South,184,0.0,0.0,100,0.00,,---,0.00,VWS V14.01,2013-07-13 09:30:00,
2013-07-13 05:40:00,70.8,70.8,29.89,South,184,0.0,0.0,100,0.00,,---,0.00,VWS V14.01,2013-07-13 09:40:00,
2013-07-13 05:50:00,70.8,70.8,29.89,South,184,0.0,0.0,100,0.00,,---,0.00,VWS V14.01,2013-07-13 09:50:00,
2013-07-13 06:00:00,70.8,70.8,29.89,South,184,0.0,0.0,100,0.00,,---,0.00,VWS V14.01,2013-07-13 10:00:00,
2013-07-13 06:10:00,70.8,70.8,29.89,South,184,0.0,0.0,100,0.00,,---,0.00,VWS V14.01,2013-07-13 10:10:00,
2013-07-13 06:20:00,70.8,70.8,29.89,South,184,0.0,0.0,100,0.00,,---,0.00,VWS V14.01,2013-07-13 10:20:00,
2013-07-13 06:30:00,70.8,70.8,29.89,South,184,0.0,0.0,100,0.00,,---,0.00,VWS V14.01,2013-07-13 10:30:00,
2013-07-13 06:40:00,70.8,70.8,29.89,South,184,0.0,0.0,100,0.00,,---,0.00,VWS V14.01,2013-07-13 10:40:00,
2013-07-13 06:50:00,70.9,70.9,29.90,South,184,0.0,0.0,100,0.00,,---,0.00,VWS V14.01,2013-07-13 10:50:00,
2013-07-13 07:00:00,70.9,70.9,29.91,South,184,0.0,0.0,100,0.00,,---,0.00,VWS V14.01,2013-07-13 11:00:00,
2013-07-13 07:10:00,71.1,71.1,29.91,South,184,0.0,0.0,100,0.00,,---,0.00,VWS V14.01,2013-07-13 11:10:00,
2013-07-13 07:20:00,71.1,71.1,29.92,South,182,0.0,0.0,100,0.00,,---,0.00,VWS V14.01,2013-07-13 11:20:00,
2013-07-13 07:30:00,71.3,71.3,29.92,South,182,0.0,0.0,100,0.00,,---,0.00,VWS V14.01,2013-07-13 11:30:00,
2013-07-13 07:40:00,71.3,71.3,29.92,ESE,114,0.0,0.0,100,0.00,,---,0.00,VWS V14.01,2013-07-13 11:40:00,
2013-07-13 07:50:00,71.6,71.6,29.92,ESE,114,0.0,0.0,100,0.00,,---,0.00,VWS V14.01,2013-07-13 11:50:00,
2013-07-13 08:00:00,71.8,71.8,29.93,South,175,0.0,0.0,100,0.00,,---,0.00,VWS V14.01,2013-07-13 12:00:00,
2013-07-13 08:10:00,72.0,72.0,29.93,South,174,0.0,0.0,100,0.00,,---,0.00,VWS V14.01,2013-07-13 12:10:00,
2013-07-13 08:20:00,72.0,72.0,29.94,South,174,0.0,0.0,100,0.00,,---,0.00,VWS V14.01,2013-07-13 12:20:00,
2013-07-13 08:30:00,72.0,72.0,29.94,South,174,0.0,0.0,100,0.00,,---,0.00,VWS V14.01,2013-07-13 12:30:00,
2013-07-13 08:40:00,72.1,72.1,29.94,South,174,0.0,0.0,100,0.00,,---,0.00,VWS V14.01,2013-07-13 12:40:00,
2013-07-13 08:50:00,72.1,72.1,29.95,South,174,0.0,0.0,100,0.00,,---,0.00,VWS V14.01,2013-07-13 12:50:00,
2013-07-13 09:00:00,72.0,72.0,29.95,South,174,0.0,0.0,100,0.00,,---,0.00,VWS V14.01,2013-07-13 13:00:00,
2013-07-13 09:10:00,72.0,72.0,29.95,SSE,147,0.0,1.0,100,0.01,,---,0.01,VWS V14.01,2013-07-13 13:10:00,
2013-07-13 09:20:00,71.8,71.8,29.95,SSE,147,0.0,0.0,100,0.01,,---,0.01,VWS V14.01,2013-07-13 13:20:00,
2013-07-13 09:30:00,71.6,71.6,29.96,SSE,147,0.0,0.0,100,0.15,,---,0.15,VWS V14.01,2013-07-13 13:30:00,
2013-07-13 09:40:00,71.8,71.8,29.96,SSE,147,0.0,0.0,100,0.18,,---,0.18,VWS V14.01,2013-07-13 13:40:00,
2013-07-13 09:50:00,72.1,72.1,29.95,SSE,147,0.0,0.0,100,0.18,,---,0.18,VWS V14.01,2013-07-13 13:50:00,
2013-07-13 10:00:00,72.3,72.3,29.95,SSE,147,0.0,0.0,100,0.18,,---,0.18,VWS V14.01,2013-07-13 14:00:00,
2013-07-13 10:10:00,72.5,72.5,29.95,SSE,147,0.0,0.0,100,0.18,,---,0.18,VWS V14.01,2013-07-13 14:10:00,
2013-07-13 10:20:00,72.8,72.8,29.95,South,172,0.0,0.0,100,0.17,,---,0.18,VWS V14.01,2013-07-13 14:20:00,
2013-07-13 10:30:00,73.0,73.0,29.96,South,172,0.0,0.0,100,0.17,,---,0.18,VWS V14.01,2013-07-13 14:30:00,
2013-07-13 10:40:00,73.2,73.2,29.96,South,171,0.0,0.0,100,0.03,,---,0.18,VWS V14.01,2013-07-13 14:40:00,
2013-07-13 10:50:00,74.0,74.0,29.97,South,171,0.0,0.0,100,0.00,,---,0.18,VWS V14.01,2013-07-13 14:50:00,
2013-07-13 11:00:00,74.9,74.9,29.96,South,171,0.0,0.0,100,0.00,,---,0.18,VWS V14.01,2013-07-13 15:00:00,
2013-07-13 11:10:00,74.7,74.7,29.96,South,171,0.0,0.0,100,0.00,,---,0.18,VWS V14.01,2013-07-13 15:10:00,
2013-07-13 11:20:00,74.7,74.7,29.96,SE,143,0.0,0.0,100,0.00,,---,0.18,VWS V14.01,2013-07-13 15:20:00,
2013-07-13 11:30:00,74.6,74.6,29.96,SE,143,0.0,0.0,100,0.00,,---,0.18,VWS V14.01,2013-07-13 15:30:00,
2013-07-13 11:40:00,74.6,74.6,29.96,ENE,73,0.0,3.0,100,0.00,,---,0.18,VWS V14.01,2013-07-13 15:40:00,
2013-07-13 11:50:00,75.6,75.6,29.96,South,188,0.0,0.0,100,0.00,,---,0.18,VWS V14.01,2013-07-13 15:50:00,
2013-07-13 12:00:00,75.4,75.4,29.96,South,186,0.0,2.0,100,0.00,,---,0.18,VWS V14.01,2013-07-13 16:00:00,
2013-07-13 12:10:00,76.5,76.5,29.96,South,185,0.0,3.0,100,0.00,,---,0.18,VWS V14.01,2013-07-13 16:10:00,
2013-07-13 12:20:00,77.2,77.2,29.96,East,96,0.0,0.0,100,0.00,,---,0.18,VWS V14.01,2013-07-13 16:20:00,
2013-07-13 12:30:00,77.7,77.7,29.96,East,99,0.0,1.0,100,0.00,,---,0.18,VWS V14.01,2013-07-13 16:30:00,
2013-07-13 12:40:00,77.6,77.6,29.96,South,179,0.0,0.0,100,0.00,,---,0.18,VWS V14.01,2013-07-13 16:40:00,
2013-07-13 12:50:00,78.1,78.1,29.96,East,100,0.0,1.0,100,0.00,,---,0.18,VWS V14.01,2013-07-13 16:50:00,
2013-07-13 13:00:00,78.5,78.5,29.97,ESE,114,0.0,0.0,100,0.04,,---,0.22,VWS V14.01,2013-07-13 17:00:00,
2013-07-13 13:10:00,78.3,78.3,29.97,ESE,114,0.0,0.0,100,0.04,,---,0.22,VWS V14.01,2013-07-13 17:10:00,
2013-07-13 13:20:00,77.4,77.4,29.97,ESE,114,0.0,0.0,100,0.04,,---,0.22,VWS V14.01,2013-07-13 17:20:00,
2013-07-13 13:30:00,76.8,76.8,29.97,ESE,112,0.0,0.0,100,0.05,,---,0.23,VWS V14.01,2013-07-13 17:30:00,
2013-07-13 13:40:00,76.5,76.5,29.97,ESE,119,0.0,0.0,100,0.08,,---,0.26,VWS V14.01,2013-07-13 17:40:00,
2013-07-13 13:50:00,76.0,76.0,29.98,ESE,119,0.0,0.0,100,0.10,,---,0.28,VWS V14.01,2013-07-13 17:50:00,
2013-07-13 14:00:00,76.0,76.0,29.97,ESE,119,0.0,0.0,100,0.12,,---,0.30,VWS V14.01,2013-07-13 18:00:00,
2013-07-13 14:10:00,76.0,76.0,29.97,ESE,119,0.0,0.0,100,0.10,,---,0.32,VWS V14.01,2013-07-13 18:10:00,
2013-07-13 14:20:00,76.7,76.7,29.97,ESE,120,0.0,0.0,100,0.10,,---,0.32,VWS V14.01,2013-07-13 18:20:00,
2013-07-13 14:30:00,77.6,77.6,29.96,ESE,121,0.0,0.0,100,0.10,,---,0.32,VWS V14.01,2013-07-13 18:30:00,
2013-07-13 14:40:00,77.6,77.6,29.96,ESE,121,0.0,0.0,100,0.09,,---,0.32,VWS V14.01,2013-07-13 18:40:00,
2013-07-13 14:50:00,77.6,77.6,29.97,ESE,121,0.0,0.0,100,0.06,,---,0.32,VWS V14.01,2013-07-13 18:50:00,
2013-07-13 15:00:00,77.7,77.7,29.98,ESE,121,0.0,0.0,100,0.04,,---,0.32,VWS V14.01,2013-07-13 19:00:00,
2013-07-13 15:10:00,77.4,77.4,29.98,ESE,121,0.0,0.0,100,0.02,,---,0.32,VWS V14.01,2013-07-13 19:10:00,
2013-07-13 15:20:00,77.7,77.7,29.98,ESE,121,0.0,0.0,100,0.00,,---,0.32,VWS V14.01,2013-07-13 19:20:00,
2013-07-13 15:30:00,77.6,77.6,29.97,SSE,158,0.0,0.0,100,0.00,,---,0.32,VWS V14.01,2013-07-13 19:30:00,
2013-07-13 15:40:00,77.7,77.7,29.97,SSE,158,0.0,0.0,100,0.00,,---,0.32,VWS V14.01,2013-07-13 19:40:00,
2013-07-13 15:50:00,77.6,77.6,29.96,SSE,154,0.0,0.0,100,0.00,,---,0.32,VWS V14.01,2013-07-13 19:50:00,
2013-07-13 16:00:00,77.0,77.0,29.96,ESE,104,0.0,0.0,100,0.00,,---,0.32,VWS V14.01,2013-07-13 20:00:00,
2013-07-13 16:10:00,76.8,76.8,29.96,NE,49,0.0,0.0,100,0.00,,---,0.32,VWS V14.01,2013-07-13 20:10:00,
2013-07-13 16:20:00,76.8,76.8,29.96,East,83,0.0,2.0,100,0.00,,---,0.32,VWS V14.01,2013-07-13 20:20:00,
2013-07-13 16:30:00,77.2,77.2,29.96,East,88,0.0,0.0,100,0.00,,---,0.32,VWS V14.01,2013-07-13 20:30:00,
2013-07-13 16:40:00,78.1,78.1,29.96,ENE,68,0.0,5.0,100,0.00,,---,0.32,VWS V14.01,2013-07-13 20:40:00,
2013-07-13 16:50:00,78.1,78.1,29.95,East,79,0.0,2.0,100,0.00,,---,0.32,VWS V14.01,2013-07-13 20:50:00,
2013-07-13 17:00:00,78.1,78.1,29.96,East,83,0.0,0.0,100,0.01,,---,0.33,VWS V14.01,2013-07-13 21:00:00,
2013-07-13 17:10:00,77.2,77.2,29.96,ENE,68,0.0,10.0,100,0.01,,---,0.33,VWS V14.01,2013-07-13 21:10:00,
2013-07-13 17:20:00,76.5,76.5,29.96,ENE,65,0.0,5.0,100,0.02,,---,0.34,VWS V14.01,2013-07-13 21:20:00,
2013-07-13 17:30:00,76.0,76.0,29.96,East,82,0.0,0.0,100,0.02,,---,0.34,VWS V14.01,2013-07-13 21:30:00,
2013-07-13 17:40:00,75.6,75.6,29.96,ENE,64,0.0,1.0,100,0.02,,---,0.34,VWS V14.01,2013-07-13 21:40:00,
2013-07-13 17:50:00,76.0,76.0,29.96,ENE,64,0.0,0.0,100,0.02,,---,0.34,VWS V14.01,2013-07-13 21:50:00,
2013-07-13 18:00:00,76.7,76.7,29.96,ENE,64,0.0,0.0,100,0.02,,---,0.34,VWS V14.01,2013-07-13 22:00:00,
2013-07-13 18:10:00,76.7,76.7,29.96,ENE,65,0.0,0.0,100,0.01,,---,0.34,VWS V14.01,2013-07-13 22:10:00,
2013-07-13 18:20:00,76.8,76.8,29.95,ENE,75,0.0,0.0,100,0.01,,---,0.34,VWS V14.01,2013-07-13 22:20:00,
2013-07-13 18:30:00,76.8,76.8,29.95,ESE,109,0.0,0.0,100,0.00,,---,0.34,VWS V14.01,2013-07-13 22:30:00,
2013-07-13 18:40:00,76.8,76.8,29.95,East,89,0.0,7.0,100,0.00,,---,0.34,VWS V14.01,2013-07-13 22:40:00,
2013-07-13 18:50:00,77.0,77.0,29.96,East,89,0.0,6.0,100,0.00,,---,0.34,VWS V14.01,2013-07-13 22:50:00,
2013-07-13 19:00:00,76.8,76.8,29.97,East,97,0.0,4.0,100,0.00,,---,0.34,VWS V14.01,2013-07-13 23:00:00,
2013-07-13 19:10:00,76.8,76.8,29.97,SSE,155,0.0,7.0,100,0.00,,---,0.34,VWS V14.01,2013-07-13 23:10:00,
2013-07-13 19:20:00,76.5,76.5,29.97,East,90,0.0,3.0,100,0.00,,---,0.34,VWS V14.01,2013-07-13 23:20:00,
2013-07-13 19:30:00,76.1,76.1,29.97,East,100,0.0,1.0,100,0.00,,---,0.34,VWS V14.01,2013-07-13 23:30:00,
2013-07-13 19:40:00,76.0,76.0,29.97,East,96,0.0,6.0,100,0.00,,---,0.34,VWS V14.01,2013-07-13 23:40:00,
2013-07-13 19:50:00,75.6,75.6,29.98,East,79,0.0,7.0,100,0.00,,---,0.34,VWS V14.01,2013-07-13 23:50:00,
2013-07-13 20:00:00,75.4,75.4,29.98,ENE,73,0.0,0.0,100,0.00,,---,0.34,VWS V14.01,2013-07-14 00:00:00,
2013-07-13 20:10:00,75.1,75.1,29.98,ESE,103,0.0,0.0,100,0.00,,---,0.34,VWS V14.01,2013-07-14 00:10:00,
2013-07-13 20:20:00,74.9,74.9,29.98,ENE,65,0.0,2.0,100,0.00,,---,0.34,VWS V14.01,2013-07-14 00:20:00,
2013-07-13 20:30:00,74.7,74.7,29.99,SE,140,0.0,0.0,100,0.00,,---,0.34,VWS V14.01,2013-07-14 00:30:00,
2013-07-13 20:40:00,74.6,74.6,29.99,SE,137,0.0,0.0,100,0.00,,---,0.34,VWS V14.01,2013-07-14 00:40:00,
2013-07-13 20:50:00,74.4,74.4,29.99,SE,133,0.0,0.0,100,0.00,,---,0.34,VWS V14.01,2013-07-14 00:50:00,
2013-07-13 21:00:00,74.2,74.2,30.00,SE,130,0.0,0.0,100,0.00,,---,0.34,VWS V14.01,2013-07-14 01:00:00,
2013-07-13 21:10:00,74.0,74.0,30.00,ENE,68,0.0,0.0,100,0.00,,---,0.34,VWS V14.01,2013-07-14 01:10:00,
2013-07-13 21:20:00,73.9,73.9,30.00,ENE,75,0.0,1.0,100,0.00,,---,0.34,VWS V14.01,2013-07-14 01:20:00,
2013-07-13 21:30:00,73.9,73.9,30.00,ENE,71,0.0,0.0,100,0.00,,---,0.34,VWS V14.01,2013-07-14 01:30:00,
2013-07-13 21:40:00,73.9,73.9,30.00,ENE,71,0.0,0.0,100,0.00,,---,0.34,VWS V14.01,2013-07-14 01:40:00,
2013-07-13 21:50:00,73.9,73.9,30.00,East,85,0.0,2.0,100,0.00,,---,0.34,VWS V14.01,2013-07-14 01:50:00,
2013-07-13 22:00:00,73.7,73.7,30.01,ESE,106,0.0,0.0,100,0.00,,---,0.34,VWS V14.01,2013-07-14 02:00:00,
2013-07-13 22:10:00,73.7,73.7,30.01,ESE,106,0.0,0.0,100,0.00,,---,0.34,VWS V14.01,2013-07-14 02:10:00,
2013-07-13 22:20:00,73.5,73.5,30.01,ESE,102,0.0,0.0,100,0.00,,---,0.34,VWS V14.01,2013-07-14 02:20:00,
2013-07-13 22:30:00,73.5,73.5,30.02,East,100,0.0,0.0,100,0.00,,---,0.34,VWS V14.01,2013-07-14 02:30:00,
2013-07-13 22:40:00,73.3,73.3,30.02,East,100,0.0,0.0,100,0.00,,---,0.34,VWS V14.01,2013-07-14 02:40:00,
2013-07-13 22:50:00,73.3,73.3,30.02,East,100,0.0,0.0,100,0.00,,---,0.34,VWS V14.01,2013-07-14 02:50:00,
2013-07-13 23:00:00,73.3,73.3,30.03,East,100,0.0,0.0,100,0.00,,---,0.34,VWS V14.01,2013-07-14 03:00:00,
2013-07-13 23:10:00,73.2,73.2,30.03,ENE,66,3.0,3.0,100,0.00,,---,0.34,VWS V14.01,2013-07-14 03:10:00,
2013-07-13 23:20:00,73.0,73.0,30.03,ESE,104,0.0,3.0,100,0.00,,---,0.34,VWS V14.01,2013-07-14 03:20:00,
2013-07-13 23:30:00,72.8,72.8,30.03,East,90,0.0,0.0,100,0.00,,---,0.34,VWS V14.01,2013-07-14 03:30:00,
2013-07-13 23:40:00,72.7,72.7,30.03,ESE,109,0.0,0.0,100,0.00,,---,0.34,VWS V14.01,2013-07-14 03:40:00,
2013-07-13 23:50:00,72.7,72.7,30.04,ESE,109,0.0,0.0,100,0.00,,---,0.34,VWS V14.01,2013-07-14 03:50:00,